Time;durP1;ratioP1;P1;durP2;ratioP2;P2;SDS_P1;SDS_P2;PMS_P1;PMS_P2;Temp;Humidity;BMP_temperature;BMP_pressure;BME280_temperature;BME280_humidity;BME280_pressure;Samples;Min_cycle;Max_cycle;Signal;HPM_P1;HPM_P2
2023/07/01 00:01:43;;;;;;;3.33;1.87;;;19.10;1.00;;;;;;5040828;28;20265;-57
2023/07/01 00:04:10;;;;;;;2.53;1.57;;;19.20;1.00;;;;;;5040807;28;20830;-57
2023/07/01 00:06:37;;;;;;;4.83;1.53;;;19.10;1.00;;;;;;5046849;28;20204;-57
2023/07/01 00:09:03;;;;;;;3.97;2.00;;;19.10;1.00;;;;;;5037183;28;20287;-57
2023/07/01 00:11:30;;;;;;;2.77;1.70;;;19.00;1.00;;;;;;5042617;28;20224;-56
2023/07/01 00:13:57;;;;;;;4.13;1.80;;;19.00;1.00;;;;;;5040345;28;20196;-56
2023/07/01 00:16:24;;;;;;;2.43;1.47;;;18.90;1.00;;;;;;5040142;28;20253;-57
2023/07/01 00:18:51;;;;;;;3.87;1.60;;;18.90;1.00;;;;;;5045385;28;20573;-58
2023/07/01 00:21:18;;;;;;;5.10;1.87;;;19.00;1.00;;;;;;5041665;28;20250;-56
2023/07/01 00:23:44;;;;;;;5.60;1.80;;;18.90;1.00;;;;;;5034716;28;20208;-58
2023/07/01 00:26:11;;;;;;;4.43;2.07;;;18.80;1.00;;;;;;5039364;28;20212;-57
2023/07/01 00:28:38;;;;;;;3.10;1.70;;;18.80;1.00;;;;;;5040956;28;20207;-57
2023/07/01 00:31:05;;;;;;;4.20;1.47;;;18.80;1.00;;;;;;5039142;28;20221;-57
2023/07/01 00:33:32;;;;;;;3.00;1.83;;;18.80;1.00;;;;;;5018321;28;20573;-57
2023/07/01 00:35:59;;;;;;;4.17;1.70;;;18.80;1.00;;;;;;5038706;28;20211;-57
2023/07/01 00:38:25;;;;;;;4.57;1.80;;;18.90;1.00;;;;;;5040113;28;20358;-57
2023/07/01 00:40:52;;;;;;;6.73;2.27;;;18.80;1.00;;;;;;5037068;28;20208;-56
2023/07/01 00:43:19;;;;;;;3.40;1.80;;;18.90;1.00;;;;;;5036190;28;20300;-56
2023/07/01 00:45:46;;;;;;;4.37;1.63;;;18.90;1.00;;;;;;5036551;28;20674;-57
2023/07/01 00:48:23;;;;;;;4.60;1.70;;;18.80;1.00;;;;;;5036565;28;20527;-56
2023/07/01 00:50:51;;;;;;;6.23;2.00;;;18.70;1.00;;;;;;5038186;28;20218;-57
2023/07/01 00:53:19;;;;;;;4.87;1.67;;;18.70;1.00;;;;;;5014086;28;20205;-57
2023/07/01 00:55:46;;;;;;;3.27;1.63;;;18.80;1.00;;;;;;5039260;28;20227;-57
2023/07/01 00:58:14;;;;;;;4.40;1.87;;;18.60;1.00;;;;;;5037749;28;20258;-57
2023/07/01 01:00:41;;;;;;;3.03;1.70;;;18.60;1.00;;;;;;5065112;22;20661;-65
2023/07/01 01:03:22;;;;;;;4.07;2.20;;;18.50;1.00;;;;;;5064354;28;20199;-60
2023/07/01 01:05:49;;;;;;;4.27;1.70;;;18.50;1.00;;;;;;5066344;28;20242;-60
2023/07/01 01:08:36;;;;;;;2.47;1.80;;;18.50;1.00;;;;;;5064669;28;21227;-60
2023/07/01 01:11:04;;;;;;;3.03;2.23;;;18.60;1.00;;;;;;5059956;28;20308;-63
2023/07/01 01:13:33;;;;;;;7.77;2.40;;;18.60;1.00;;;;;;5055244;28;20199;-61
2023/07/01 01:16:02;;;;;;;4.03;1.90;;;18.60;1.00;;;;;;5059796;28;20455;-60
2023/07/01 01:18:31;;;;;;;5.57;2.20;;;18.50;1.00;;;;;;5039992;28;20216;-61
2023/07/01 01:20:59;;;;;;;5.80;2.20;;;18.50;1.00;;;;;;5060587;28;20321;-62
2023/07/01 01:23:29;;;;;;;3.77;2.30;;;18.60;1.00;;;;;;5060022;28;20223;-61
2023/07/01 01:26:17;;;;;;;3.80;1.80;;;18.60;1.00;;;;;;5059530;28;20210;-61
2023/07/01 01:28:44;;;;;;;3.60;1.83;;;18.50;1.00;;;;;;5043660;28;20252;-60
2023/07/01 01:31:11;;;;;;;2.73;1.97;;;18.40;1.00;;;;;;5047508;28;20218;-61
2023/07/01 01:33:43;;;;;;;5.63;1.97;;;18.30;1.00;;;;;;5060529;28;20261;-59
2023/07/01 01:36:17;;;;;;;7.90;2.20;;;18.30;1.00;;;;;;5067356;28;20202;-64
2023/07/01 01:38:45;;;;;;;4.17;2.23;;;18.40;1.00;;;;;;5061616;28;20202;-60
2023/07/01 01:42:04;;;;;;;3.50;2.13;;;18.30;1.00;;;;;;5058365;28;20214;-63
2023/07/01 01:44:45;;;;;;;4.00;1.80;;;18.40;17.60;;;;;;4975253;28;20231;-60
2023/07/01 01:47:19;;;;;;;5.87;2.50;;;18.40;42.20;;;;;;4976461;28;20206;-61
2023/07/01 01:49:50;;;;;;;3.33;2.07;;;18.40;99.90;;;;;;4978445;28;20212;-60
2023/07/01 01:52:18;;;;;;;3.40;2.13;;;18.30;99.90;;;;;;4976863;28;20225;-59
2023/07/01 01:54:46;;;;;;;2.17;1.70;;;18.20;99.90;;;;;;4975087;28;20667;-60
2023/07/01 01:57:14;;;;;;;3.03;1.90;;;18.20;99.90;;;;;;4978696;28;20292;-61
2023/07/01 01:59:43;;;;;;;3.80;1.93;;;18.10;1.00;;;;;;4975463;28;20354;-63
2023/07/01 02:02:10;;;;;;;8.43;2.27;;;18.20;1.00;;;;;;4958359;28;20589;-64
2023/07/01 02:04:37;;;;;;;3.77;2.37;;;18.10;1.00;;;;;;4955760;28;20273;-60
2023/07/01 02:07:04;;;;;;;6.90;1.93;;;18.00;1.00;;;;;;4962613;28;20321;-65
2023/07/01 02:09:31;;;;;;;2.50;1.80;;;18.10;1.00;;;;;;4959192;28;20202;-65
2023/07/01 02:11:58;;;;;;;2.53;1.90;;;18.00;1.00;;;;;;4959468;28;20295;-65
2023/07/01 02:14:25;;;;;;;3.70;1.77;;;17.90;99.90;;;;;;4978022;28;20203;-62
2023/07/01 02:16:54;;;;;;;4.73;1.87;;;17.90;99.90;;;;;;5038540;28;20206;-63
2023/07/01 02:19:21;;;;;;;2.10;1.70;;;17.90;99.90;;;;;;5039124;28;20209;-60
2023/07/01 02:21:48;;;;;;;6.10;2.00;;;17.80;99.90;;;;;;5041082;28;20733;-61
2023/07/01 02:24:15;;;;;;;4.87;1.70;;;17.70;99.90;;;;;;5034832;28;20204;-61
2023/07/01 02:26:42;;;;;;;4.03;1.93;;;17.80;1.00;;;;;;5038652;28;20301;-61
2023/07/01 02:29:08;;;;;;;3.47;2.30;;;17.70;1.00;;;;;;5037533;28;20624;-62
2023/07/01 02:31:35;;;;;;;2.47;1.77;;;17.60;99.90;;;;;;5020664;28;21275;-61
2023/07/01 02:34:02;;;;;;;5.60;2.07;;;17.60;99.90;;;;;;5019339;28;20297;-61
2023/07/01 02:36:30;;;;;;;3.23;1.80;;;17.60;99.90;;;;;;5040196;28;20232;-63
2023/07/01 02:38:57;;;;;;;2.70;1.87;;;17.60;99.90;;;;;;5039395;28;20321;-61
2023/07/01 02:41:24;;;;;;;7.03;1.80;;;17.60;99.90;;;;;;5039819;28;20313;-62
2023/07/01 02:43:50;;;;;;;3.57;2.20;;;17.50;1.00;;;;;;5038709;28;20217;-61
2023/07/01 02:46:18;;;;;;;4.60;2.30;;;17.50;1.00;;;;;;5038862;28;20214;-62
2023/07/01 02:48:44;;;;;;;5.83;2.43;;;17.50;1.00;;;;;;5020496;28;20202;-62
2023/07/01 02:51:11;;;;;;;5.03;2.37;;;17.50;1.00;;;;;;5038705;28;20630;-60
2023/07/01 02:53:38;;;;;;;2.97;2.13;;;17.40;1.00;;;;;;5019885;28;20209;-62
2023/07/01 02:56:05;;;;;;;3.90;2.30;;;17.40;21.10;;;;;;5020789;28;21997;-61
2023/07/01 02:58:32;;;;;;;5.07;2.30;;;17.40;1.00;;;;;;5037768;28;20199;-64
2023/07/01 03:00:59;;;;;;;5.57;2.03;;;17.40;1.00;;;;;;5036750;28;20254;-62
2023/07/01 03:03:26;;;;;;;5.87;2.20;;;17.40;1.00;;;;;;5037335;28;20195;-62
2023/07/01 03:05:53;;;;;;;3.47;2.17;;;17.30;62.50;;;;;;5037457;28;20567;-61
2023/07/01 03:08:20;;;;;;;4.40;2.10;;;17.30;99.90;;;;;;5020228;28;20728;-61
2023/07/01 03:10:47;;;;;;;6.23;2.20;;;17.30;1.00;;;;;;5034371;28;20217;-62
2023/07/01 03:13:16;;;;;;;4.97;2.00;;;17.30;1.20;;;;;;5039929;28;20216;-60
2023/07/01 03:15:43;;;;;;;2.30;1.70;;;17.30;99.90;;;;;;5021225;28;20250;-64
2023/07/01 03:18:09;;;;;;;4.90;2.20;;;17.30;1.00;;;;;;5023184;28;20213;-61
2023/07/01 03:20:36;;;;;;;2.07;1.87;;;17.20;99.90;;;;;;5038889;28;20564;-60
2023/07/01 03:23:03;;;;;;;2.47;1.90;;;17.30;99.90;;;;;;5036577;28;20315;-60
2023/07/01 03:25:31;;;;;;;4.70;2.10;;;17.40;99.90;;;;;;5038239;28;20207;-61
2023/07/01 03:27:58;;;;;;;3.17;1.87;;;17.40;99.90;;;;;;5034623;28;20204;-61
2023/07/01 03:30:31;;;;;;;4.70;2.23;;;17.50;8.10;;;;;;5038321;28;20200;-60
2023/07/01 03:32:58;;;;;;;4.27;2.40;;;17.50;1.00;;;;;;5018093;28;20273;-63
2023/07/01 03:35:25;;;;;;;4.90;1.80;;;17.50;1.00;;;;;;5039988;28;20199;-60
2023/07/01 03:37:52;;;;;;;2.57;1.80;;;17.40;99.90;;;;;;5038646;28;20546;-61
2023/07/01 03:40:19;;;;;;;2.40;1.90;;;17.30;1.00;;;;;;5036366;28;20214;-60
2023/07/01 03:42:46;;;;;;;3.93;1.83;;;17.20;1.00;;;;;;5037946;28;20675;-61
2023/07/01 03:45:13;;;;;;;5.13;2.10;;;17.30;99.90;;;;;;5035638;28;20230;-63
2023/07/01 03:47:45;;;;;;;3.23;1.80;;;17.20;99.90;;;;;;5033669;28;20211;-62
2023/07/01 03:50:14;;;;;;;4.23;2.70;;;17.20;1.00;;;;;;5039242;28;20249;-63
2023/07/01 03:52:41;;;;;;;4.20;2.00;;;17.30;99.90;;;;;;5038595;28;20212;-63
2023/07/01 03:55:13;;;;;;;4.03;2.23;;;17.30;99.90;;;;;;5033886;28;20207;-60
2023/07/01 03:57:41;;;;;;;2.57;1.90;;;17.20;3.60;;;;;;5036364;28;20211;-61
2023/07/01 04:00:17;;;;;;;2.50;1.70;;;17.00;99.90;;;;;;5026047;28;20204;-63
2023/07/01 04:02:51;;;;;;;3.57;2.20;;;17.00;1.00;;;;;;5035541;28;21042;-61
2023/07/01 04:05:18;;;;;;;3.70;1.93;;;17.10;1.00;;;;;;5039979;28;20199;-61
2023/07/01 04:07:48;;;;;;;6.63;2.50;;;17.00;1.00;;;;;;5023133;28;20290;-62
2023/07/01 04:10:16;;;;;;;2.50;2.00;;;16.90;1.00;;;;;;5036456;28;20203;-61
2023/07/01 04:12:43;;;;;;;2.23;1.97;;;17.00;1.00;;;;;;5035013;28;20208;-63
2023/07/01 04:15:11;;;;;;;4.67;2.00;;;16.90;1.00;;;;;;5023821;28;20246;-61
2023/07/01 04:17:41;;;;;;;4.00;1.80;;;16.90;1.00;;;;;;5037118;28;20208;-61
2023/07/01 04:20:09;;;;;;;2.10;1.90;;;16.80;1.00;;;;;;5039926;28;20205;-60
2023/07/01 04:22:37;;;;;;;3.17;2.27;;;16.70;99.90;;;;;;5038527;28;20620;-61
2023/07/01 04:25:04;;;;;;;2.23;1.90;;;16.90;1.00;;;;;;5034675;28;20564;-63
2023/07/01 04:27:32;;;;;;;2.43;1.87;;;16.90;99.90;;;;;;5039888;28;20302;-64
2023/07/01 04:29:59;;;;;;;2.10;1.90;;;16.80;1.00;;;;;;5018598;28;20235;-64
2023/07/01 04:32:28;;;;;;;4.10;2.07;;;16.70;1.00;;;;;;5037739;28;20565;-66
2023/07/01 04:34:55;;;;;;;3.90;1.80;;;16.60;99.90;;;;;;5033314;28;20215;-64
2023/07/01 04:37:22;;;;;;;4.03;1.73;;;16.50;99.90;;;;;;5035772;28;20721;-65
2023/07/01 04:39:49;;;;;;;4.30;1.93;;;16.50;99.90;;;;;;5034973;28;20207;-64
2023/07/01 04:42:16;;;;;;;3.27;2.10;;;16.50;99.90;;;;;;5016879;28;20215;-66
2023/07/01 04:44:43;;;;;;;2.57;2.13;;;16.50;99.90;;;;;;5033062;28;20664;-64
2023/07/01 04:47:11;;;;;;;2.20;1.97;;;16.50;99.90;;;;;;5035645;28;20203;-65
2023/07/01 04:49:38;;;;;;;2.57;2.20;;;16.40;99.90;;;;;;5029932;28;20217;-65
2023/07/01 04:52:05;;;;;;;3.40;2.30;;;16.50;99.90;;;;;;5016777;28;20615;-65
2023/07/01 04:54:32;;;;;;;2.20;2.00;;;16.60;99.90;;;;;;5032539;28;20285;-66
2023/07/01 04:56:59;;;;;;;3.03;2.10;;;16.60;99.90;;;;;;5026362;28;20221;-65
2023/07/01 04:59:26;;;;;;;3.07;2.00;;;16.50;99.90;;;;;;5013819;28;20200;-63
2023/07/01 05:01:53;;;;;;;3.93;2.30;;;16.50;99.90;;;;;;5035308;28;20310;-65
2023/07/01 05:04:20;;;;;;;3.43;2.23;;;16.60;99.90;;;;;;5035799;28;20646;-64
2023/07/01 05:06:47;;;;;;;2.63;2.07;;;16.50;99.90;;;;;;5039757;28;20203;-65
2023/07/01 05:09:15;;;;;;;3.00;2.43;;;16.60;99.90;;;;;;5037821;28;20308;-65
2023/07/01 05:11:42;;;;;;;3.60;2.40;;;16.50;99.90;;;;;;5036076;28;20217;-66
2023/07/01 05:14:09;;;;;;;2.50;2.30;;;16.60;99.90;;;;;;5037114;28;20695;-64
2023/07/01 05:16:35;;;;;;;2.80;2.60;;;16.60;99.90;;;;;;5038337;28;20660;-64
2023/07/01 05:19:02;;;;;;;3.40;2.30;;;16.60;99.90;;;;;;5033594;28;20675;-65
2023/07/01 05:21:32;;;;;;;2.17;2.00;;;16.50;99.90;;;;;;5037693;28;20285;-66
2023/07/01 05:23:59;;;;;;;2.73;2.40;;;16.60;99.90;;;;;;5035049;28;20203;-64
2023/07/01 05:26:26;;;;;;;2.90;2.30;;;16.70;99.90;;;;;;5037928;28;20199;-65
2023/07/01 05:28:54;;;;;;;4.90;2.57;;;16.60;99.90;;;;;;5037692;28;20196;-63
2023/07/01 05:31:21;;;;;;;3.93;2.73;;;16.70;99.90;;;;;;5037902;28;20764;-64
2023/07/01 05:33:48;;;;;;;3.17;2.87;;;16.80;99.90;;;;;;5034180;28;20218;-64
2023/07/01 05:36:15;;;;;;;2.70;2.47;;;16.70;99.90;;;;;;5018894;28;20679;-64
2023/07/01 05:38:42;;;;;;;2.97;2.50;;;16.80;99.90;;;;;;5037163;28;20566;-61
2023/07/01 05:41:09;;;;;;;3.43;2.53;;;16.80;99.90;;;;;;5017871;28;20259;-59
2023/07/01 05:43:36;;;;;;;3.20;2.90;;;16.70;99.90;;;;;;5037729;28;20208;-62
2023/07/01 05:46:03;;;;;;;3.53;2.37;;;16.60;99.90;;;;;;5035336;28;20657;-63
2023/07/01 05:48:30;;;;;;;3.17;2.37;;;16.50;99.90;;;;;;5037316;28;20206;-60
2023/07/01 05:50:56;;;;;;;3.23;2.13;;;16.60;99.90;;;;;;5036685;28;20251;-62
2023/07/01 05:53:23;;;;;;;3.17;2.07;;;16.60;99.90;;;;;;5035324;28;20618;-61
2023/07/01 05:55:50;;;;;;;2.73;1.90;;;16.60;99.90;;;;;;5038636;28;20974;-61
2023/07/01 05:58:17;;;;;;;2.03;1.77;;;16.70;99.90;;;;;;5029538;28;20248;-61
2023/07/01 06:00:45;;;;;;;3.43;2.20;;;16.80;99.90;;;;;;5021240;28;20228;-60
2023/07/01 06:03:13;;;;;;;4.23;2.17;;;16.70;99.90;;;;;;4658329;28;10000304;-63
2023/07/01 06:05:40;;;;;;;2.40;2.20;;;16.70;99.90;;;;;;5031037;28;20657;-60
2023/07/01 06:08:07;;;;;;;4.53;2.10;;;16.80;99.90;;;;;;5035976;28;20229;-62
2023/07/01 06:10:34;;;;;;;2.10;1.80;;;16.80;99.90;;;;;;5036275;28;20199;-61
2023/07/01 06:13:01;;;;;;;3.13;1.80;;;16.80;99.90;;;;;;5035600;28;20220;-61
2023/07/01 06:15:28;;;;;;;2.47;1.87;;;16.90;99.90;;;;;;5036720;28;20700;-60
2023/07/01 06:17:55;;;;;;;3.70;1.70;;;16.80;99.90;;;;;;5023340;28;20673;-61
2023/07/01 06:20:22;;;;;;;2.93;1.97;;;16.90;99.90;;;;;;5026210;28;20251;-61
2023/07/01 06:22:49;;;;;;;2.83;1.83;;;16.90;99.90;;;;;;5039705;28;20343;-63
2023/07/01 06:25:15;;;;;;;2.03;1.70;;;16.90;99.90;;;;;;5041047;28;20696;-61
2023/07/01 06:27:42;;;;;;;2.23;1.80;;;16.80;99.90;;;;;;5039471;28;20218;-61
2023/07/01 06:30:09;;;;;;;2.20;1.73;;;16.90;99.90;;;;;;5038925;28;20202;-63
2023/07/01 06:32:36;;;;;;;1.87;1.77;;;17.00;99.90;;;;;;5036672;28;20629;-61
2023/07/01 06:35:03;;;;;;;2.20;1.80;;;17.00;99.90;;;;;;5035843;28;20202;-62
2023/07/01 06:37:30;;;;;;;1.87;1.63;;;17.00;99.90;;;;;;5039547;28;20609;-61
2023/07/01 06:39:57;;;;;;;2.67;1.77;;;17.00;99.90;;;;;;5040584;28;20200;-61
2023/07/01 06:42:24;;;;;;;5.77;1.90;;;17.00;99.90;;;;;;5040096;28;20722;-59
2023/07/01 06:44:51;;;;;;;2.23;1.70;;;16.90;99.90;;;;;;5038125;28;20297;-63
2023/07/01 06:47:17;;;;;;;2.30;1.60;;;17.10;99.90;;;;;;5038684;28;20660;-67
2023/07/01 06:49:45;;;;;;;2.30;1.80;;;17.10;99.90;;;;;;5036965;28;20211;-66
2023/07/01 06:52:11;;;;;;;2.07;1.77;;;17.00;99.90;;;;;;5039209;28;20702;-67
2023/07/01 06:54:38;;;;;;;2.77;2.10;;;17.00;99.90;;;;;;5038663;28;20212;-67
2023/07/01 06:57:05;;;;;;;2.87;1.93;;;16.90;99.90;;;;;;5041025;28;20192;-67
2023/07/01 06:59:32;;;;;;;2.13;1.60;;;16.90;99.90;;;;;;5035879;28;20227;-67
2023/07/01 07:01:59;;;;;;;3.10;2.13;;;16.90;99.90;;;;;;5037136;28;20932;-67
2023/07/01 07:04:26;;;;;;;2.50;1.90;;;16.90;99.90;;;;;;5038881;28;20301;-67
2023/07/01 07:06:52;;;;;;;2.30;2.00;;;16.90;99.90;;;;;;5028646;28;20201;-67
2023/07/01 07:09:20;;;;;;;5.33;2.50;;;17.00;99.90;;;;;;5038595;28;20297;-67
2023/07/01 07:11:47;;;;;;;2.13;2.00;;;17.00;99.90;;;;;;5023996;28;20204;-67
2023/07/01 07:14:14;;;;;;;2.77;2.57;;;17.10;99.90;;;;;;5035804;28;20535;-67
2023/07/01 07:16:47;;;;;;;3.07;2.30;;;17.10;99.90;;;;;;5030154;28;21116;-67
2023/07/01 07:19:14;;;;;;;3.30;2.40;;;17.10;99.90;;;;;;5033791;28;20204;-66
2023/07/01 07:21:41;;;;;;;3.67;2.87;;;17.10;99.90;;;;;;5035506;28;20265;-66
2023/07/01 07:24:08;;;;;;;3.20;2.90;;;17.10;99.90;;;;;;5034012;28;20220;-67
2023/07/01 07:26:36;;;;;;;3.10;2.80;;;17.10;99.90;;;;;;5031361;28;20204;-68
2023/07/01 07:29:03;;;;;;;2.70;2.50;;;17.00;99.90;;;;;;5033827;28;20566;-67
2023/07/01 07:31:30;;;;;;;3.33;2.90;;;17.10;99.90;;;;;;5035476;28;20208;-67
2023/07/01 07:33:57;;;;;;;2.70;2.50;;;17.10;99.90;;;;;;5034917;28;20218;-66
2023/07/01 07:36:24;;;;;;;3.17;2.87;;;17.10;99.90;;;;;;5033643;28;20673;-66
2023/07/01 07:38:51;;;;;;;3.63;3.23;;;17.20;99.90;;;;;;5032327;28;20208;-66
2023/07/01 07:41:17;;;;;;;3.20;2.90;;;17.10;99.90;;;;;;5037096;28;20254;-66
2023/07/01 07:43:44;;;;;;;3.20;2.90;;;17.20;99.90;;;;;;5015213;28;21052;-66
2023/07/01 07:46:11;;;;;;;4.57;3.03;;;17.20;99.90;;;;;;5034895;28;20221;-66
2023/07/01 07:48:38;;;;;;;3.93;3.43;;;17.30;99.90;;;;;;5034054;28;20384;-65
2023/07/01 07:51:05;;;;;;;3.17;2.87;;;17.30;99.90;;;;;;5033203;28;20223;-66
2023/07/01 07:53:31;;;;;;;3.47;3.17;;;17.40;99.90;;;;;;5036371;28;20319;-65
2023/07/01 07:55:58;;;;;;;3.20;2.60;;;17.40;99.90;;;;;;5032877;28;20220;-64
2023/07/01 07:58:25;;;;;;;2.77;2.57;;;17.30;99.90;;;;;;5040381;28;20271;-66
2023/07/01 08:00:52;;;;;;;2.90;2.70;;;17.30;99.90;;;;;;5035919;28;20311;-66
2023/07/01 08:03:19;;;;;;;4.47;3.00;;;17.30;99.90;;;;;;5029107;28;20256;-67
2023/07/01 08:05:49;;;;;;;3.77;2.97;;;17.50;99.90;;;;;;5034448;28;20561;-66
2023/07/01 08:08:16;;;;;;;3.97;3.57;;;17.50;99.90;;;;;;5018701;28;20256;-66
2023/07/01 08:10:45;;;;;;;4.33;3.63;;;17.50;99.90;;;;;;5017183;28;20253;-64
2023/07/01 08:13:14;;;;;;;3.60;2.90;;;17.50;99.90;;;;;;5037463;28;20741;-63
2023/07/01 08:15:42;;;;;;;4.10;3.50;;;17.50;99.90;;;;;;5037289;28;20204;-64
2023/07/01 08:18:09;;;;;;;3.40;3.10;;;17.60;99.90;;;;;;5036401;28;20205;-64
2023/07/01 08:20:38;;;;;;;3.43;3.13;;;17.60;99.90;;;;;;5017164;28;20207;-64
2023/07/01 08:23:05;;;;;;;3.57;3.27;;;17.60;99.90;;;;;;5035725;28;20259;-63
2023/07/01 08:25:31;;;;;;;3.43;3.13;;;17.60;99.90;;;;;;5037227;28;20356;-65
2023/07/01 08:27:58;;;;;;;4.40;3.20;;;17.60;99.90;;;;;;5038367;28;20773;-66
2023/07/01 08:30:25;;;;;;;3.83;3.10;;;17.50;99.90;;;;;;5039379;28;20206;-63
2023/07/01 08:32:53;;;;;;;3.57;3.27;;;17.60;99.90;;;;;;5034665;28;20227;-65
2023/07/01 08:35:20;;;;;;;3.60;3.30;;;17.70;99.90;;;;;;5018377;28;20205;-64
2023/07/01 08:37:46;;;;;;;3.30;3.00;;;17.70;99.90;;;;;;5023452;28;20232;-65
2023/07/01 08:40:14;;;;;;;3.50;3.10;;;17.70;99.90;;;;;;5038152;28;20294;-65
2023/07/01 08:42:50;;;;;;;4.30;3.10;;;17.70;99.90;;;;;;5017505;28;20207;-63
2023/07/01 08:45:24;;;;;;;3.67;3.37;;;17.70;99.90;;;;;;5038617;28;20670;-64
2023/07/01 08:47:57;;;;;;;3.00;2.80;;;17.70;99.90;;;;;;5038960;28;20206;-65
2023/07/01 08:50:31;;;;;;;4.27;3.07;;;17.80;99.90;;;;;;5039357;28;20871;-64
2023/07/01 08:53:05;;;;;;;2.87;2.63;;;17.90;99.90;;;;;;5039014;28;20701;-63
2023/07/01 08:55:33;;;;;;;2.70;2.50;;;18.00;99.90;;;;;;5020181;28;20201;-66
2023/07/01 08:58:00;;;;;;;3.40;3.10;;;17.90;99.90;;;;;;5040360;28;20660;-65
2023/07/01 09:00:28;;;;;;;3.30;3.00;;;17.80;99.90;;;;;;5035988;28;20236;-66
2023/07/01 09:02:56;;;;;;;3.60;3.23;;;17.80;99.90;;;;;;5037115;28;20565;-64
2023/07/01 09:05:23;;;;;;;3.57;3.20;;;17.80;99.90;;;;;;5038993;28;20211;-66
2023/07/01 09:07:50;;;;;;;4.20;3.03;;;17.80;99.90;;;;;;5029353;28;20673;-65
2023/07/01 09:10:18;;;;;;;3.30;3.00;;;17.90;99.90;;;;;;5035315;28;20258;-63
2023/07/01 09:12:44;;;;;;;3.73;3.17;;;17.90;99.90;;;;;;5034517;28;20244;-64
2023/07/01 09:15:11;;;;;;;3.93;3.63;;;18.00;99.90;;;;;;5020148;28;20210;-66
2023/07/01 09:17:40;;;;;;;4.00;3.17;;;18.00;99.90;;;;;;5031969;28;20203;-60
2023/07/01 09:20:10;;;;;;;3.63;3.23;;;17.90;99.90;;;;;;5031325;28;20197;-60
2023/07/01 09:22:39;;;;;;;3.50;3.20;;;18.10;99.90;;;;;;5036404;28;20208;-61
2023/07/01 09:25:07;;;;;;;3.83;3.47;;;18.10;99.90;;;;;;5038382;28;20197;-61
2023/07/01 09:27:46;;;;;;;3.00;2.80;;;18.00;99.90;;;;;;5037503;28;20234;-62
2023/07/01 09:30:26;;;;;;;4.27;3.87;;;18.10;99.90;;;;;;5033453;28;20200;-60
2023/07/01 09:33:13;;;;;;;5.43;3.40;;;18.10;99.90;;;;;;5036445;28;20223;-61
2023/07/01 09:35:42;;;;;;;4.07;3.23;;;18.20;99.90;;;;;;5036455;28;20680;-62
2023/07/01 09:38:09;;;;;;;4.93;3.50;;;18.20;99.90;;;;;;5036718;28;20192;-63
2023/07/01 09:40:36;;;;;;;2.70;2.43;;;18.20;99.90;;;;;;5038621;28;20219;-61
2023/07/01 09:43:04;;;;;;;3.03;2.73;;;18.20;99.90;;;;;;5018397;28;20229;-61
2023/07/01 09:45:31;;;;;;;3.10;2.80;;;18.30;99.90;;;;;;5037261;28;20763;-62
2023/07/01 09:48:11;;;;;;;3.27;2.83;;;18.30;99.90;;;;;;5038315;28;20706;-60
2023/07/01 09:50:38;;;;;;;2.73;2.10;;;18.20;99.90;;;;;;5034789;28;20234;-64
2023/07/01 09:53:19;;;;;;;3.00;2.77;;;18.30;99.90;;;;;;5037122;28;20232;-60
2023/07/01 09:55:47;;;;;;;3.77;2.37;;;18.20;99.90;;;;;;5036355;28;20192;-63
2023/07/01 09:58:15;;;;;;;3.10;2.80;;;18.20;99.90;;;;;;5038089;28;20196;-63
2023/07/01 10:00:43;;;;;;;4.17;2.63;;;18.10;99.90;;;;;;5040321;28;20234;-60
2023/07/01 10:03:10;;;;;;;3.20;2.40;;;18.20;99.90;;;;;;5039145;28;20208;-61
2023/07/01 10:05:37;;;;;;;3.97;2.53;;;18.20;99.90;;;;;;5034170;28;20220;-60
2023/07/01 10:08:06;;;;;;;3.00;2.63;;;18.30;99.90;;;;;;5036618;28;20253;-60
2023/07/01 10:10:32;;;;;;;3.17;2.80;;;18.30;99.90;;;;;;5019963;28;20239;-63
2023/07/01 10:13:01;;;;;;;3.70;2.73;;;18.30;99.90;;;;;;5037933;28;20222;-62
2023/07/01 10:15:34;;;;;;;3.87;3.20;;;18.40;99.90;;;;;;5018342;28;20255;-66
2023/07/01 10:18:00;;;;;;;2.83;2.60;;;18.30;99.90;;;;;;5039637;28;20754;-63
2023/07/01 10:20:29;;;;;;;3.43;3.03;;;18.30;99.90;;;;;;5036764;28;20250;-62
2023/07/01 10:22:56;;;;;;;3.30;3.00;;;18.40;99.90;;;;;;5029045;28;20208;-62
2023/07/01 10:25:32;;;;;;;3.40;2.87;;;18.40;99.90;;;;;;5035999;28;20200;-62
2023/07/01 10:28:11;;;;;;;3.83;2.80;;;18.40;99.90;;;;;;5032755;28;20315;-67
2023/07/01 10:30:44;;;;;;;4.73;3.40;;;18.40;99.90;;;;;;5035623;28;20911;-68
2023/07/01 10:33:31;;;;;;;3.73;3.33;;;18.60;99.90;;;;;;5033952;28;20216;-66
2023/07/01 10:36:18;;;;;;;3.30;3.00;;;18.70;99.90;;;;;;5037051;28;20215;-67
2023/07/01 10:38:45;;;;;;;4.10;3.53;;;18.60;99.90;;;;;;5036134;28;20207;-68
2023/07/01 10:41:12;;;;;;;4.37;3.20;;;18.60;99.90;;;;;;5034837;28;20207;-67
2023/07/01 10:43:39;;;;;;;3.80;3.20;;;18.80;99.90;;;;;;5036517;28;20208;-67
2023/07/01 10:46:21;;;;;;;4.07;3.27;;;18.90;99.90;;;;;;5019801;28;20298;-67
2023/07/01 10:49:03;;;;;;;4.43;3.33;;;19.00;99.90;;;;;;5035538;28;20248;-66
2023/07/01 10:51:31;;;;;;;4.13;3.30;;;18.90;99.90;;;;;;5036737;28;20214;-66
2023/07/01 10:54:02;;;;;;;3.47;3.13;;;19.00;99.90;;;;;;5033802;28;20301;-68
2023/07/01 10:56:39;;;;;;;4.57;3.20;;;18.90;99.90;;;;;;5038617;28;20218;-67
2023/07/01 10:59:29;;;;;;;3.57;2.73;;;19.00;99.90;;;;;;5033624;28;20627;-67
2023/07/01 11:01:59;;;;;;;3.30;3.00;;;19.00;99.90;;;;;;5020935;28;20239;-65
2023/07/01 11:04:54;;;;;;;3.57;2.83;;;19.00;99.90;;;;;;5033247;28;20201;-66
2023/07/01 11:07:24;;;;;;;4.50;2.97;;;19.00;99.90;;;;;;5035682;28;20210;-68
2023/07/01 11:09:52;;;;;;;3.87;3.00;;;19.10;99.90;;;;;;5033514;28;20199;-65
2023/07/01 11:12:19;;;;;;;4.00;3.37;;;19.20;99.90;;;;;;5037533;28;20217;-66
2023/07/01 11:14:46;;;;;;;3.73;3.40;;;19.30;99.90;;;;;;5031920;28;20219;-64
2023/07/01 11:17:16;;;;;;;3.50;3.20;;;19.40;99.90;;;;;;5015486;28;20604;-67
2023/07/01 11:19:44;;;;;;;4.00;3.60;;;19.40;99.90;;;;;;5030266;28;20871;-67
2023/07/01 11:22:14;;;;;;;3.93;3.37;;;19.30;99.90;;;;;;5037201;28;20288;-67
2023/07/01 11:24:41;;;;;;;4.27;3.87;;;19.40;99.90;;;;;;5035443;28;20702;-67
2023/07/01 11:27:09;;;;;;;4.60;4.07;;;19.40;99.90;;;;;;5036441;28;20214;-66
2023/07/01 11:29:37;;;;;;;6.07;5.03;;;19.40;99.90;;;;;;5033563;28;20211;-68
2023/07/01 11:32:12;;;;;;;5.37;4.40;;;19.30;99.90;;;;;;5036100;28;20196;-63
2023/07/01 11:34:41;;;;;;;5.03;4.53;;;19.50;99.90;;;;;;5033046;28;20225;-61
2023/07/01 11:37:08;;;;;;;6.37;4.87;;;19.40;99.90;;;;;;5032531;28;20202;-66
2023/07/01 11:39:45;;;;;;;4.13;3.73;;;19.50;99.90;;;;;;5035002;28;20212;-66
2023/07/01 11:42:12;;;;;;;4.37;3.97;;;19.40;99.90;;;;;;5033278;28;20246;-62
2023/07/01 11:44:39;;;;;;;3.90;3.50;;;19.50;99.90;;;;;;5034420;28;20264;-61
2023/07/01 11:47:14;;;;;;;4.57;3.50;;;19.30;99.90;;;;;;5019149;28;20763;-64
2023/07/01 11:49:41;;;;;;;5.83;4.23;;;19.40;99.90;;;;;;5035174;28;20213;-65
2023/07/01 11:52:08;;;;;;;6.57;3.97;;;19.30;99.90;;;;;;5018957;28;20219;-64
2023/07/01 11:54:46;;;;;;;3.73;3.37;;;19.30;99.90;;;;;;5032277;28;20224;-66
2023/07/01 11:57:18;;;;;;;5.60;3.40;;;19.70;99.90;;;;;;5021864;28;20207;-65
2023/07/01 12:00:01;;;;;;;6.00;3.40;;;19.70;99.90;;;;;;5035307;28;21151;-64
2023/07/01 12:02:28;;;;;;;3.73;3.43;;;19.50;99.90;;;;;;5034705;28;20589;-63
2023/07/01 12:04:56;;;;;;;4.70;3.50;;;19.60;99.90;;;;;;5014561;28;20245;-60
2023/07/01 12:07:23;;;;;;;4.20;3.40;;;19.90;99.90;;;;;;5038548;28;20624;-61
2023/07/01 12:09:50;;;;;;;4.57;3.53;;;20.00;99.90;;;;;;5035564;28;20231;-61
2023/07/01 12:12:34;;;;;;;4.23;3.77;;;19.90;99.90;;;;;;5034177;28;20565;-61
2023/07/01 12:15:11;;;;;;;4.00;3.60;;;19.70;99.90;;;;;;5033495;28;20211;-61
2023/07/01 12:17:38;;;;;;;5.00;4.00;;;19.80;99.90;;;;;;5036871;28;20293;-60
2023/07/01 12:20:09;;;;;;;5.23;3.93;;;19.60;99.90;;;;;;5035956;28;20215;-60
2023/07/01 12:22:37;;;;;;;3.73;3.13;;;19.60;99.90;;;;;;5033868;28;20210;-60
2023/07/01 12:25:04;;;;;;;4.13;2.80;;;19.40;99.90;;;;;;5027056;28;20211;-61
2023/07/01 12:27:32;;;;;;;3.10;2.80;;;19.50;99.90;;;;;;5036395;28;20244;-60
2023/07/01 12:29:59;;;;;;;3.17;2.73;;;19.40;99.90;;;;;;5030825;28;20201;-60
2023/07/01 12:32:26;;;;;;;2.70;2.50;;;19.30;99.90;;;;;;5033528;28;21036;-60
2023/07/01 12:34:55;;;;;;;2.70;2.50;;;19.30;99.90;;;;;;5032657;28;20551;-64
2023/07/01 12:37:23;;;;;;;3.10;2.20;;;19.40;99.90;;;;;;5036514;28;20199;-60
2023/07/01 12:39:53;;;;;;;5.20;2.20;;;19.30;99.90;;;;;;5036483;28;20687;-60
2023/07/01 12:42:21;;;;;;;1.93;1.73;;;19.40;99.90;;;;;;5033872;28;20592;-61
2023/07/01 12:44:49;;;;;;;3.17;2.47;;;19.20;99.90;;;;;;5031165;28;20298;-59
2023/07/01 12:47:16;;;;;;;1.97;1.77;;;19.50;99.90;;;;;;5033488;28;20218;-61
2023/07/01 12:49:43;;;;;;;2.33;1.87;;;19.60;99.90;;;;;;5014061;28;20670;-62
2023/07/01 12:52:10;;;;;;;2.27;2.00;;;19.70;99.90;;;;;;5033506;28;20264;-60
2023/07/01 12:54:37;;;;;;;4.50;2.30;;;19.70;99.90;;;;;;5033901;28;20239;-62
2023/07/01 12:57:04;;;;;;;3.33;2.50;;;19.90;99.90;;;;;;5035756;28;21841;-62
2023/07/01 12:59:31;;;;;;;2.97;2.43;;;19.90;99.90;;;;;;5014411;28;20211;-60